Prof. Eribelto Manoel Reino State Airport

SBSR · São Paulo, 巴西

METAR的历史 SBSR · Prof. Eribelto Manoel Reino State Airport

下面你可以看到过去几天的METARs。 选择年份以浏览从2007年开始的旧METAR。

2024年4月17日

时间 代码 天气 温度 能见度 天花板 METAR/SPECI
05:00
V
24 °C 10 km+ - 240° 240° 5 kt METAR SBSR 170800Z 24005KT CAVOK 24/22 Q1016
04:00
V
25 °C 10 km+ - 240° 240° 5 kt METAR SBSR 170700Z 24005KT CAVOK 25/21 Q1015
03:00
V
26 °C 10 km+ - 360° 360° 0 kt METAR SBSR 170600Z 00000KT CAVOK 26/21 Q1015
02:00
V
25 °C 10 km+ - 360° 360° 0 kt METAR SBSR 170500Z 00000KT CAVOK 25/21 Q1015
01:00
V
26 °C 10 km+ - 360° 360° 0 kt METAR SBSR 170400Z 00000KT CAVOK 26/20 Q1016
00:00
V
27 °C 10 km+ - 210° 210° 3 kt METAR SBSR 170300Z 21003KT CAVOK 27/20 Q1017

2024年4月16日

时间 代码 天气 温度 能见度 天花板 METAR/SPECI
23:00
V
27 °C 10 km+ - 210° 210° 2 kt METAR SBSR 170200Z 21002KT CAVOK 27/20 Q1017
22:00
V
27 °C 10 km+ - 330° 330° 2 kt METAR SBSR 170100Z 33002KT CAVOK 27/20 Q1017
21:00
V
28 °C 10 km+ - 270° 270° 3 kt METAR SBSR 170000Z 27003KT CAVOK 28/20 Q1016
20:00
V
29 °C 10 km+ 9.000 ft 120° 120° 3 kt METAR SBSR 162300Z 12003KT 9999 SCT030 BKN090 29/18 Q1016
19:00
V
30 °C 10 km+ 9.000 ft 090° 090° 4 kt METAR SBSR 162200Z 09004KT 9999 SCT030 BKN090 30/18 Q1015
18:00
V
30 °C 10 km+ 9.000 ft 110° 110° 5 kt METAR SBSR 162100Z 11005KT 9999 SCT030 BKN090 30/18 Q1014
17:00
V
31 °C 10 km+ - 070° 070° 4 kt METAR SBSR 162000Z 07004KT 9999 FEW030 31/18 Q1014
16:00
V
31 °C 10 km+ - 360° 360° 4 kt METAR SBSR 161900Z 36004KT 9999 FEW030 31/18 Q1014
15:00
V
31 °C 10 km+ - 050° 050° 8 kt METAR SBSR 161800Z 05008KT 9999 FEW030 31/17 Q1015
14:00
V
31 °C 10 km+ - 040° 040° 9 kt METAR SBSR 161700Z 04009KT 9999 FEW030 31/18 Q1015
13:00
V
31 °C 10 km+ - 040° 040° 8 kt METAR SBSR 161600Z 04008KT CAVOK 31/19 Q1016
12:00
V
30 °C 10 km+ - 040° 040° 10 kt METAR SBSR 161500Z 04010KT CAVOK 30/18 Q1017
11:00
V
29 °C 10 km+ - 070° 070° 10 kt METAR SBSR 161400Z 07010KT CAVOK 29/19 Q1018
10:00
V
28 °C 10 km+ - 030° 030° 10 kt METAR SBSR 161300Z 03010KT CAVOK 28/19 Q1018
09:00
V
27 °C 10 km+ - 050° 050° 8 kt METAR SBSR 161200Z 05008KT CAVOK 27/19 Q1018
08:00
V
26 °C 10 km+ - 040° 040° 5 kt METAR SBSR 161100Z 04005KT 9999 FEW040 SCT070 26/20 Q1018
07:00
V
24 °C 10 km+ 7.000 ft 070° 070° 3 kt METAR SBSR 161000Z 07003KT 9999 FEW040 BKN070 24/19 Q1017
06:00
V
24 °C 10 km+ 7.000 ft 070° 070° 5 kt METAR SBSR 160900Z 07005KT 9999 FEW040 BKN070 24/20 Q1016
05:00
V
25 °C 10 km+ 7.000 ft 060° 060° 5 kt METAR SBSR 160800Z 06005KT 9999 FEW040 BKN070 25/19 Q1016
04:00
V
25 °C 10 km+ 7.000 ft 060° 060° 5 kt METAR SBSR 160700Z 06005KT 9999 FEW040 BKN070 25/19 Q1016
03:00
V
25 °C 10 km+ - 090° 090° 4 kt METAR SBSR 160600Z 09004KT 9999 FEW040 SCT070 25/20 Q1016
02:00
V
25 °C 10 km+ 8.000 ft 080° 080° 5 kt METAR SBSR 160500Z 08005KT 9999 FEW040 BKN080 25/20 Q1016
01:00
V
25 °C 10 km+ 8.000 ft 100° 100° 4 kt METAR SBSR 160400Z 10004KT 9999 FEW040 BKN080 25/20 Q1016
00:00
V
26 °C 10 km+ 8.000 ft 110° 110° 7 kt METAR SBSR 160300Z 11007KT 9999 FEW040 BKN080 26/21 Q1017

2024年4月15日

时间 代码 天气 温度 能见度 天花板 METAR/SPECI
23:00
V
26 °C 10 km+ 8.000 ft 130° 130° 2 kt METAR SBSR 160200Z 13002KT 9999 FEW035 BKN080 26/21 Q1017
22:00
V
26 °C 10 km+ 8.000 ft 360° 360° 0 kt METAR SBSR 160100Z 00000KT 9999 FEW035 BKN080 26/21 Q1016
21:00
V
26 °C 10 km+ 8.000 ft 280° 280° 1 kt METAR SBSR 160000Z 28001KT 9999 -RA SCT035 BKN080 26/20 Q1016
20:00
V
28 °C 10 km+ 8.000 ft 130° 130° 1 kt METAR SBSR 152300Z 13001KT 9999 SCT035 BKN080 28/19 Q1015
19:00
V
28 °C 10 km+ 8.000 ft 120° 120° 3 kt METAR SBSR 152200Z 12003KT 9999 FEW035 BKN080 28/19 Q1014
18:00
V
29 °C 10 km+ 8.000 ft 100° 100° 5 kt METAR SBSR 152100Z 10005KT 9999 FEW035 FEW040TCU BKN080 29/19 Q1013
17:00
V
29 °C 10 km+ 9.000 ft 050° 050° 3 kt METAR SBSR 152000Z 05003KT 9999 SCT040 OVC090 29/19 Q1013
16:00
V
30 °C 10 km+ 10.000 ft 040° 040° 7 kt METAR SBSR 151900Z 04007KT 9999 FEW035 FEW040TCU BKN100 30/18 Q1013
15:00
V
30 °C 10 km+ - 040° 040° 6 kt METAR SBSR 151800Z 04006KT 9999 FEW035 SCT070 30/19 Q1014
14:00
V
29 °C 10 km+ - 020° 020° 7 kt METAR SBSR 151700Z 02007KT 9999 FEW035 29/18 Q1014
13:00
V
29 °C 10 km+ - 030° 030° 7 kt METAR SBSR 151600Z 03007KT 9999 FEW045 29/19 Q1014
12:00
V
27 °C 10 km+ 7.000 ft 050° 050° 10 kt METAR SBSR 151500Z 05010KT 9999 FEW035 BKN070 27/19 Q1015
11:00
V
24 °C 10 km+ 7.000 ft 040° 040° 10 kt METAR SBSR 151400Z 04010KT 9999 SCT035 OVC070 24/20 Q1016
10:00
V
25 °C 10 km+ 7.000 ft 060° 060° 8 kt METAR SBSR 151300Z 06008KT 9999 SCT025 OVC070 25/20 Q1017
09:00
V
24 °C 10 km+ 7.000 ft 050° 050° 4 kt METAR SBSR 151200Z 05004KT 9999 SCT025 OVC070 24/20 Q1017
08:00
V
24 °C 10 km+ 7.000 ft 070° 070° 7 kt METAR SBSR 151100Z 07007KT 9999 FEW020 SCT025 OVC070 24/20 Q1016
07:00
V
24 °C 10 km+ 7.000 ft 090° 090° 6 kt METAR SBSR 151000Z 09006KT 9999 -RA FEW020 SCT030 OVC070 24/20 Q1015
06:00
V
24 °C 10 km+ - 090° 090° 6 kt METAR SBSR 150900Z 09006KT CAVOK 24/20 Q1015
05:00
V
24 °C 10 km+ - 120° 120° 7 kt METAR SBSR 150800Z 12007KT CAVOK 24/20 Q1014
04:00
V
25 °C 10 km+ - 090° 090° 5 kt METAR SBSR 150700Z 09005KT CAVOK 25/20 Q1014
03:00
V
25 °C 10 km+ - 120° 120° 4 kt METAR SBSR 150600Z 12004KT CAVOK 25/21 Q1014
报告变更